RYR14KP LIMC-LICA
Flight info
| Callsign | RYR14KP |
|---|---|
| Flight time | 1h 28m |
| Altitude | 35000 |
| Route | ROBAS DCT LOGDI DCT EKDIR DCT KUGIX DCT EVINO DCT ARBUM |
| Aircraft | B738/M-SDE2E3FGHIRWXY/LB1 |
Departure
| Time | 2026-05-05 14:12 |
|---|---|
| Airport | Milan Malpensa International Airport (LIMC) |
Arrival
| Time | 2026-05-05 15:40 |
|---|---|
| Airport | Lamezia Terme Sant'Eufemia International Airport (LICA) |
| Time | Latitude | Longitude | Altitude | Speed | Heading |
|---|---|---|---|---|---|
| 2026-05-05 13:39 | 45.62864 | 8.71587 | 733 ft | 0 kts | 169° |
| 2026-05-05 14:00 | 45.62866 | 8.71587 | 733 ft | 2 kts | 169° |
| 2026-05-05 14:00 | 45.62882 | 8.71582 | 733 ft | 2 kts | 168° |
| 2026-05-05 14:01 | 45.62898 | 8.71577 | 731 ft | 2 kts | 165° |
| 2026-05-05 14:01 | 45.62914 | 8.71570 | 733 ft | 2 kts | 159° |
| 2026-05-05 14:01 | 45.62929 | 8.71560 | 731 ft | 2 kts | 130° |
| 2026-05-05 14:01 | 45.62933 | 8.71541 | 734 ft | 1 kts | 80° |
| 2026-05-05 14:02 | 45.62933 | 8.71537 | 734 ft | 0 kts | 79° |
| 2026-05-05 14:03 | 45.62933 | 8.71538 | 734 ft | 0 kts | 79° |
| 2026-05-05 14:03 | 45.62935 | 8.71553 | 733 ft | 3 kts | 79° |
| 2026-05-05 14:03 | 45.62943 | 8.71615 | 734 ft | 10 kts | 79° |
| 2026-05-05 14:04 | 45.62960 | 8.71745 | 733 ft | 17 kts | 79° |
| 2026-05-05 14:04 | 45.62976 | 8.71912 | 734 ft | 12 kts | 104° |
| 2026-05-05 14:04 | 45.62902 | 8.71965 | 733 ft | 14 kts | 168° |
| 2026-05-05 14:04 | 45.62793 | 8.71994 | 729 ft | 18 kts | 169° |
| 2026-05-05 14:05 | 45.62648 | 8.72034 | 729 ft | 24 kts | 169° |
| 2026-05-05 14:05 | 45.62467 | 8.72086 | 724 ft | 28 kts | 169° |
| 2026-05-05 14:05 | 45.62277 | 8.72137 | 720 ft | 27 kts | 169° |
| 2026-05-05 14:05 | 45.62097 | 8.72186 | 716 ft | 25 kts | 169° |
| 2026-05-05 14:06 | 45.61932 | 8.72233 | 714 ft | 24 kts | 169° |
| 2026-05-05 14:06 | 45.61774 | 8.72276 | 701 ft | 23 kts | 169° |
| 2026-05-05 14:06 | 45.61619 | 8.72320 | 704 ft | 23 kts | 169° |
| 2026-05-05 14:06 | 45.61455 | 8.72365 | 698 ft | 23 kts | 169° |
| 2026-05-05 14:07 | 45.61363 | 8.72457 | 694 ft | 16 kts | 134° |
| 2026-05-05 14:07 | 45.61272 | 8.72526 | 694 ft | 15 kts | 170° |
| 2026-05-05 14:07 | 45.61167 | 8.72555 | 695 ft | 16 kts | 169° |
| 2026-05-05 14:07 | 45.61075 | 8.72628 | 691 ft | 16 kts | 104° |
| 2026-05-05 14:08 | 45.61091 | 8.72778 | 692 ft | 15 kts | 77° |
| 2026-05-05 14:08 | 45.61113 | 8.72922 | 693 ft | 15 kts | 78° |
| 2026-05-05 14:08 | 45.61144 | 8.73055 | 693 ft | 14 kts | 53° |
| 2026-05-05 14:08 | 45.61220 | 8.73134 | 689 ft | 13 kts | 34° |
| 2026-05-05 14:09 | 45.61295 | 8.73207 | 696 ft | 13 kts | 34° |
| 2026-05-05 14:09 | 45.61372 | 8.73267 | 698 ft | 13 kts | 13° |
| 2026-05-05 14:09 | 45.61457 | 8.73254 | 698 ft | 12 kts | 349° |
| 2026-05-05 14:09 | 45.61545 | 8.73230 | 700 ft | 13 kts | 349° |
| 2026-05-05 14:10 | 45.61618 | 8.73269 | 700 ft | 12 kts | 70° |
| 2026-05-05 14:10 | 45.61634 | 8.73384 | 694 ft | 12 kts | 83° |
| 2026-05-05 14:10 | 45.61611 | 8.73489 | 695 ft | 11 kts | 118° |
| 2026-05-05 14:10 | 45.61587 | 8.73601 | 701 ft | 13 kts | 89° |
| 2026-05-05 14:11 | 45.61622 | 8.73721 | 697 ft | 14 kts | 31° |
| 2026-05-05 14:11 | 45.61731 | 8.73707 | 702 ft | 27 kts | 348° |
| 2026-05-05 14:11 | 45.62149 | 8.73591 | 715 ft | 95 kts | 349° |
| 2026-05-05 14:11 | 45.62997 | 8.73358 | 732 ft | 151 kts | 349° |
| 2026-05-05 14:12 | 45.64141 | 8.73083 | 1101 ft | 172 kts | 352° |
| 2026-05-05 14:12 | 45.65318 | 8.72826 | 1894 ft | 174 kts | 356° |
| 2026-05-05 14:12 | 45.66503 | 8.73127 | 2561 ft | 178 kts | 32° |
| 2026-05-05 14:12 | 45.67371 | 8.74511 | 2857 ft | 202 kts | 69° |
| 2026-05-05 14:13 | 45.67827 | 8.76413 | 3505 ft | 203 kts | 72° |
| 2026-05-05 14:13 | 45.68367 | 8.78304 | 4081 ft | 208 kts | 62° |
| 2026-05-05 14:13 | 45.69368 | 8.79834 | 4705 ft | 212 kts | 39° |
| 2026-05-05 14:13 | 45.70559 | 8.81075 | 5336 ft | 215 kts | 39° |
| 2026-05-05 14:14 | 45.71737 | 8.82380 | 5965 ft | 215 kts | 46° |
| 2026-05-05 14:14 | 45.72558 | 8.84216 | 6253 ft | 227 kts | 76° |
| 2026-05-05 14:14 | 45.72792 | 8.86440 | 6811 ft | 228 kts | 93° |
| 2026-05-05 14:14 | 45.72532 | 8.88746 | 7259 ft | 242 kts | 111° |
| 2026-05-05 14:15 | 45.71616 | 8.90759 | 7891 ft | 247 kts | 140° |
| 2026-05-05 14:15 | 45.70289 | 8.92303 | 8768 ft | 246 kts | 142° |
| 2026-05-05 14:15 | 45.69017 | 8.94003 | 9502 ft | 253 kts | 136° |
| 2026-05-05 14:15 | 45.67863 | 8.95911 | 10282 ft | 257 kts | 132° |
| 2026-05-05 14:16 | 45.66761 | 8.97951 | 10992 ft | 262 kts | 131° |
| 2026-05-05 14:16 | 45.65671 | 9.00052 | 11705 ft | 264 kts | 130° |
| 2026-05-05 14:16 | 45.64580 | 9.02176 | 12407 ft | 267 kts | 132° |
| 2026-05-05 14:16 | 45.63357 | 9.04264 | 12741 ft | 285 kts | 137° |
| 2026-05-05 14:17 | 45.61965 | 9.06440 | 12940 ft | 308 kts | 137° |
| 2026-05-05 14:17 | 45.60451 | 9.08768 | 13119 ft | 332 kts | 137° |
| 2026-05-05 14:17 | 45.58837 | 9.11260 | 13446 ft | 349 kts | 137° |
| 2026-05-05 14:17 | 45.57205 | 9.13798 | 14054 ft | 355 kts | 137° |
| 2026-05-05 14:18 | 45.55532 | 9.16414 | 14776 ft | 357 kts | 137° |
| 2026-05-05 14:18 | 45.53854 | 9.19044 | 15522 ft | 360 kts | 137° |
| 2026-05-05 14:18 | 45.52160 | 9.21700 | 16237 ft | 363 kts | 137° |
| 2026-05-05 14:18 | 45.50450 | 9.24379 | 16934 ft | 367 kts | 138° |
| 2026-05-05 14:19 | 45.48724 | 9.27080 | 17639 ft | 371 kts | 138° |
| 2026-05-05 14:19 | 45.46973 | 9.29817 | 18333 ft | 375 kts | 138° |
| 2026-05-05 14:19 | 45.45210 | 9.32571 | 18923 ft | 379 kts | 138° |
| 2026-05-05 14:19 | 45.43427 | 9.35354 | 19485 ft | 382 kts | 139° |
| 2026-05-05 14:20 | 45.41619 | 9.38172 | 20118 ft | 387 kts | 138° |
| 2026-05-05 14:20 | 45.39791 | 9.41020 | 20679 ft | 391 kts | 138° |
| 2026-05-05 14:20 | 45.37947 | 9.43889 | 21237 ft | 395 kts | 138° |
| 2026-05-05 14:20 | 45.36084 | 9.46785 | 21773 ft | 399 kts | 138° |
| 2026-05-05 14:21 | 45.34200 | 9.49711 | 22310 ft | 403 kts | 138° |
| 2026-05-05 14:21 | 45.32299 | 9.52660 | 22838 ft | 407 kts | 138° |
| 2026-05-05 14:21 | 45.30376 | 9.55641 | 23350 ft | 411 kts | 138° |
| 2026-05-05 14:21 | 45.28435 | 9.58646 | 23805 ft | 415 kts | 138° |
| 2026-05-05 14:22 | 45.26478 | 9.61673 | 24237 ft | 417 kts | 138° |
| 2026-05-05 14:22 | 45.24511 | 9.64716 | 24683 ft | 420 kts | 139° |
| 2026-05-05 14:22 | 45.22530 | 9.67773 | 25098 ft | 422 kts | 138° |
| 2026-05-05 14:22 | 45.20534 | 9.70848 | 25522 ft | 425 kts | 138° |
| 2026-05-05 14:23 | 45.18443 | 9.73793 | 25932 ft | 422 kts | 147° |
| 2026-05-05 14:23 | 45.16087 | 9.76248 | 26367 ft | 420 kts | 151° |
| 2026-05-05 14:23 | 45.13658 | 9.78564 | 26759 ft | 422 kts | 153° |
| 2026-05-05 14:23 | 45.11203 | 9.80863 | 27161 ft | 425 kts | 153° |
| 2026-05-05 14:24 | 45.08738 | 9.83188 | 27579 ft | 427 kts | 152° |
| 2026-05-05 14:24 | 45.06265 | 9.85554 | 27984 ft | 430 kts | 152° |
| 2026-05-05 14:24 | 45.03794 | 9.87946 | 28369 ft | 432 kts | 152° |
| 2026-05-05 14:24 | 45.01307 | 9.90372 | 28738 ft | 435 kts | 152° |
| 2026-05-05 14:25 | 44.98811 | 9.92814 | 29103 ft | 438 kts | 152° |
| 2026-05-05 14:25 | 44.96302 | 9.95270 | 29458 ft | 440 kts | 152° |
| 2026-05-05 14:25 | 44.93785 | 9.97733 | 29791 ft | 442 kts | 151° |
| 2026-05-05 14:25 | 44.91352 | 10.00111 | 30233 ft | 440 kts | 151° |
| 2026-05-05 14:26 | 44.88909 | 10.02498 | 30687 ft | 438 kts | 152° |
| 2026-05-05 14:26 | 44.86410 | 10.04936 | 31114 ft | 436 kts | 152° |
| 2026-05-05 14:26 | 44.83914 | 10.07365 | 31495 ft | 436 kts | 152° |
| 2026-05-05 14:26 | 44.81429 | 10.09779 | 31860 ft | 436 kts | 152° |
| 2026-05-05 14:27 | 44.78933 | 10.12202 | 32266 ft | 434 kts | 152° |
| 2026-05-05 14:27 | 44.76449 | 10.14613 | 32676 ft | 433 kts | 152° |
| 2026-05-05 14:27 | 44.73973 | 10.17012 | 33060 ft | 432 kts | 152° |
| 2026-05-05 14:27 | 44.71495 | 10.19409 | 33296 ft | 435 kts | 152° |
| 2026-05-05 14:28 | 44.69009 | 10.21863 | 33514 ft | 438 kts | 151° |
| 2026-05-05 14:28 | 44.66538 | 10.24377 | 33890 ft | 438 kts | 151° |
| 2026-05-05 14:28 | 44.64089 | 10.26897 | 34240 ft | 436 kts | 150° |
| 2026-05-05 14:28 | 44.61647 | 10.29411 | 34549 ft | 435 kts | 150° |
| 2026-05-05 14:29 | 44.59201 | 10.31919 | 34821 ft | 436 kts | 150° |
| 2026-05-05 14:29 | 44.56782 | 10.34391 | 34996 ft | 438 kts | 150° |
| 2026-05-05 14:29 | 44.51825 | 10.39428 | 34973 ft | 441 kts | 151° |
| 2026-05-05 14:30 | 44.46888 | 10.44436 | 34990 ft | 436 kts | 151° |
| 2026-05-05 14:30 | 44.41974 | 10.49405 | 34997 ft | 435 kts | 151° |
| 2026-05-05 14:31 | 44.37036 | 10.54386 | 34993 ft | 435 kts | 151° |
| 2026-05-05 14:31 | 44.32132 | 10.59323 | 34986 ft | 434 kts | 151° |
| 2026-05-05 14:32 | 44.27226 | 10.64254 | 35015 ft | 435 kts | 151° |
| 2026-05-05 14:32 | 44.22305 | 10.69189 | 35016 ft | 436 kts | 151° |
| 2026-05-05 14:33 | 44.17404 | 10.74111 | 35015 ft | 437 kts | 151° |
| 2026-05-05 14:33 | 44.12475 | 10.79089 | 35021 ft | 438 kts | 151° |
| 2026-05-05 14:34 | 44.07536 | 10.84072 | 35005 ft | 439 kts | 151° |
| 2026-05-05 14:34 | 44.02573 | 10.89067 | 34996 ft | 441 kts | 151° |
| 2026-05-05 14:35 | 43.97602 | 10.94056 | 34991 ft | 443 kts | 151° |
| 2026-05-05 14:35 | 43.92598 | 10.99069 | 34985 ft | 444 kts | 151° |
| 2026-05-05 14:36 | 43.87728 | 11.03937 | 34972 ft | 445 kts | 152° |
| 2026-05-05 14:36 | 43.82710 | 11.08942 | 34992 ft | 445 kts | 152° |
| 2026-05-05 14:37 | 43.77683 | 11.13946 | 34996 ft | 446 kts | 152° |
| 2026-05-05 14:37 | 43.72642 | 11.18952 | 34999 ft | 446 kts | 152° |
| 2026-05-05 14:38 | 43.67590 | 11.23959 | 34995 ft | 448 kts | 152° |
| 2026-05-05 14:38 | 43.62524 | 11.28972 | 34986 ft | 448 kts | 152° |
| 2026-05-05 14:39 | 43.57451 | 11.33980 | 34987 ft | 449 kts | 152° |
| 2026-05-05 14:39 | 43.52423 | 11.39124 | 34990 ft | 452 kts | 149° |
| 2026-05-05 14:40 | 43.47526 | 11.44594 | 35000 ft | 454 kts | 148° |
| 2026-05-05 14:40 | 43.42640 | 11.50112 | 34990 ft | 454 kts | 148° |
| 2026-05-05 14:41 | 43.37744 | 11.55583 | 35002 ft | 453 kts | 148° |
| 2026-05-05 14:41 | 43.32837 | 11.61019 | 35019 ft | 454 kts | 149° |
| 2026-05-05 14:42 | 43.27914 | 11.66449 | 35005 ft | 454 kts | 149° |
| 2026-05-05 14:42 | 43.23018 | 11.71839 | 34998 ft | 454 kts | 148° |
| 2026-05-05 14:43 | 43.18064 | 11.77283 | 35011 ft | 453 kts | 148° |
| 2026-05-05 14:43 | 43.13177 | 11.82642 | 35018 ft | 453 kts | 148° |
| 2026-05-05 14:44 | 43.08243 | 11.88038 | 35025 ft | 454 kts | 148° |
| 2026-05-05 14:44 | 43.03296 | 11.93440 | 35039 ft | 456 kts | 148° |
| 2026-05-05 14:45 | 42.98348 | 11.98831 | 35013 ft | 457 kts | 149° |
| 2026-05-05 14:45 | 42.93526 | 12.04074 | 35030 ft | 457 kts | 149° |
| 2026-05-05 14:46 | 42.89384 | 12.08569 | 35031 ft | 458 kts | 148° |
| 2026-05-05 14:46 | 42.84390 | 12.13977 | 35031 ft | 459 kts | 148° |
| 2026-05-05 14:47 | 42.79389 | 12.19383 | 35040 ft | 460 kts | 148° |
| 2026-05-05 14:47 | 42.74376 | 12.24790 | 35033 ft | 459 kts | 148° |
| 2026-05-05 14:48 | 42.69371 | 12.30178 | 35045 ft | 459 kts | 148° |
| 2026-05-05 14:48 | 42.64365 | 12.35554 | 35041 ft | 458 kts | 148° |
| 2026-05-05 14:49 | 42.59370 | 12.40908 | 35043 ft | 457 kts | 148° |
| 2026-05-05 14:49 | 42.54369 | 12.46254 | 35047 ft | 457 kts | 148° |
| 2026-05-05 14:50 | 42.49368 | 12.51592 | 35057 ft | 458 kts | 148° |
| 2026-05-05 14:50 | 42.44361 | 12.56923 | 35075 ft | 458 kts | 148° |
| 2026-05-05 14:51 | 42.39343 | 12.62255 | 35081 ft | 459 kts | 148° |
| 2026-05-05 14:51 | 42.34322 | 12.67580 | 35091 ft | 459 kts | 148° |
| 2026-05-05 14:52 | 42.29297 | 12.72897 | 35078 ft | 460 kts | 148° |
| 2026-05-05 14:52 | 42.24262 | 12.78216 | 35078 ft | 459 kts | 148° |
| 2026-05-05 14:53 | 42.19234 | 12.83516 | 35074 ft | 458 kts | 148° |
| 2026-05-05 14:53 | 42.14215 | 12.88796 | 35070 ft | 458 kts | 148° |
| 2026-05-05 14:54 | 42.09184 | 12.94074 | 35076 ft | 458 kts | 148° |
| 2026-05-05 14:54 | 42.04155 | 12.99340 | 35065 ft | 458 kts | 148° |
| 2026-05-05 14:55 | 41.99274 | 13.04443 | 35072 ft | 458 kts | 148° |
| 2026-05-05 14:55 | 41.94270 | 13.09662 | 35069 ft | 459 kts | 148° |
| 2026-05-05 14:56 | 41.89220 | 13.14919 | 35052 ft | 459 kts | 148° |
| 2026-05-05 14:56 | 41.84190 | 13.20150 | 35077 ft | 457 kts | 148° |
| 2026-05-05 14:57 | 41.79157 | 13.25364 | 35096 ft | 457 kts | 148° |
| 2026-05-05 14:57 | 41.74119 | 13.30575 | 35099 ft | 458 kts | 148° |
| 2026-05-05 14:58 | 41.69077 | 13.35781 | 35103 ft | 458 kts | 148° |
| 2026-05-05 14:58 | 41.64027 | 13.40984 | 35101 ft | 458 kts | 148° |
| 2026-05-05 14:59 | 41.58975 | 13.46179 | 35095 ft | 458 kts | 148° |
| 2026-05-05 14:59 | 41.53919 | 13.51367 | 35089 ft | 459 kts | 148° |
| 2026-05-05 15:00 | 41.49674 | 13.55716 | 35074 ft | 458 kts | 148° |
| 2026-05-05 15:00 | 41.43805 | 13.61718 | 35075 ft | 457 kts | 148° |
| 2026-05-05 15:01 | 41.38768 | 13.66856 | 35072 ft | 456 kts | 148° |
| 2026-05-05 15:01 | 41.33739 | 13.71975 | 35057 ft | 455 kts | 148° |
| 2026-05-05 15:02 | 41.28716 | 13.77079 | 35062 ft | 454 kts | 148° |
| 2026-05-05 15:02 | 41.23692 | 13.82172 | 35081 ft | 453 kts | 148° |
| 2026-05-05 15:03 | 41.18673 | 13.87252 | 35073 ft | 454 kts | 148° |
| 2026-05-05 15:03 | 41.13653 | 13.92321 | 35058 ft | 454 kts | 148° |
| 2026-05-05 15:04 | 41.08621 | 13.97393 | 35070 ft | 454 kts | 148° |
| 2026-05-05 15:04 | 41.03720 | 14.02323 | 35076 ft | 454 kts | 148° |
| 2026-05-05 15:05 | 40.96171 | 14.09898 | 35105 ft | 456 kts | 148° |
| 2026-05-05 15:06 | 40.91111 | 14.14964 | 35109 ft | 457 kts | 148° |
| 2026-05-05 15:06 | 40.86037 | 14.20033 | 35096 ft | 457 kts | 148° |
| 2026-05-05 15:07 | 40.80994 | 14.25063 | 35101 ft | 457 kts | 149° |
| 2026-05-05 15:07 | 40.75882 | 14.30151 | 35084 ft | 458 kts | 149° |
| 2026-05-05 15:08 | 40.70793 | 14.35205 | 35084 ft | 458 kts | 149° |
| 2026-05-05 15:08 | 40.65699 | 14.40255 | 35082 ft | 458 kts | 149° |
| 2026-05-05 15:09 | 40.60596 | 14.45303 | 35069 ft | 459 kts | 149° |
| 2026-05-05 15:09 | 40.55489 | 14.50347 | 35087 ft | 459 kts | 149° |
| 2026-05-05 15:10 | 40.50400 | 14.55362 | 35093 ft | 461 kts | 149° |
| 2026-05-05 15:10 | 40.45218 | 14.60457 | 35091 ft | 463 kts | 149° |
| 2026-05-05 15:11 | 40.40084 | 14.65498 | 35067 ft | 463 kts | 148° |
| 2026-05-05 15:11 | 40.34940 | 14.70541 | 35079 ft | 460 kts | 148° |
| 2026-05-05 15:11 | 40.32352 | 14.73075 | 34929 ft | 456 kts | 149° |
| 2026-05-05 15:12 | 40.29856 | 14.75518 | 34669 ft | 451 kts | 149° |
| 2026-05-05 15:12 | 40.27328 | 14.77990 | 34423 ft | 445 kts | 149° |
| 2026-05-05 15:12 | 40.24857 | 14.80401 | 34179 ft | 441 kts | 149° |
| 2026-05-05 15:12 | 40.22437 | 14.82759 | 33926 ft | 438 kts | 149° |
| 2026-05-05 15:13 | 40.19971 | 14.85159 | 33648 ft | 435 kts | 149° |
| 2026-05-05 15:13 | 40.17548 | 14.87515 | 33380 ft | 433 kts | 149° |
| 2026-05-05 15:13 | 40.15167 | 14.89827 | 33112 ft | 431 kts | 149° |
| 2026-05-05 15:13 | 40.12738 | 14.92186 | 32849 ft | 429 kts | 149° |
| 2026-05-05 15:14 | 40.10345 | 14.94505 | 32576 ft | 428 kts | 148° |
| 2026-05-05 15:14 | 40.07966 | 14.96812 | 32297 ft | 423 kts | 148° |
| 2026-05-05 15:14 | 40.05615 | 14.99090 | 31970 ft | 419 kts | 148° |
| 2026-05-05 15:14 | 40.03397 | 15.01237 | 31629 ft | 416 kts | 148° |
| 2026-05-05 15:15 | 40.01077 | 15.03481 | 31282 ft | 413 kts | 148° |
| 2026-05-05 15:15 | 39.98786 | 15.05693 | 30938 ft | 411 kts | 148° |
| 2026-05-05 15:15 | 39.96497 | 15.07901 | 30591 ft | 409 kts | 148° |
| 2026-05-05 15:15 | 39.94214 | 15.10102 | 30246 ft | 407 kts | 148° |
| 2026-05-05 15:16 | 39.91949 | 15.12284 | 29848 ft | 404 kts | 148° |
| 2026-05-05 15:16 | 39.89700 | 15.14451 | 29461 ft | 401 kts | 148° |
| 2026-05-05 15:16 | 39.87470 | 15.16597 | 29105 ft | 397 kts | 148° |
| 2026-05-05 15:16 | 39.85262 | 15.18719 | 28752 ft | 393 kts | 148° |
| 2026-05-05 15:17 | 39.83073 | 15.20822 | 28373 ft | 390 kts | 148° |
| 2026-05-05 15:17 | 39.80899 | 15.22908 | 28032 ft | 386 kts | 148° |
| 2026-05-05 15:17 | 39.78749 | 15.24970 | 27667 ft | 383 kts | 148° |
| 2026-05-05 15:17 | 39.76613 | 15.27016 | 27315 ft | 380 kts | 148° |
| 2026-05-05 15:18 | 39.74519 | 15.29021 | 26975 ft | 378 kts | 148° |
| 2026-05-05 15:18 | 39.72409 | 15.31039 | 26635 ft | 375 kts | 148° |
| 2026-05-05 15:18 | 39.70335 | 15.33092 | 26283 ft | 375 kts | 145° |
| 2026-05-05 15:18 | 39.68339 | 15.35265 | 25942 ft | 374 kts | 143° |
| 2026-05-05 15:19 | 39.66381 | 15.37475 | 25612 ft | 372 kts | 143° |
| 2026-05-05 15:19 | 39.64438 | 15.39686 | 25267 ft | 371 kts | 143° |
| 2026-05-05 15:19 | 39.62499 | 15.41886 | 24928 ft | 369 kts | 143° |
| 2026-05-05 15:19 | 39.60564 | 15.44068 | 24593 ft | 368 kts | 143° |
| 2026-05-05 15:20 | 39.58632 | 15.46235 | 24261 ft | 367 kts | 143° |
| 2026-05-05 15:20 | 39.56704 | 15.48391 | 23926 ft | 366 kts | 143° |
| 2026-05-05 15:20 | 39.54775 | 15.50541 | 23562 ft | 366 kts | 143° |
| 2026-05-05 15:20 | 39.52846 | 15.52688 | 23159 ft | 365 kts | 143° |
| 2026-05-05 15:21 | 39.50926 | 15.54823 | 22801 ft | 363 kts | 143° |
| 2026-05-05 15:21 | 39.49012 | 15.56949 | 22451 ft | 362 kts | 143° |
| 2026-05-05 15:21 | 39.47108 | 15.59063 | 22105 ft | 360 kts | 143° |
| 2026-05-05 15:21 | 39.45213 | 15.61165 | 21765 ft | 358 kts | 143° |
| 2026-05-05 15:22 | 39.43325 | 15.63258 | 21424 ft | 356 kts | 143° |
| 2026-05-05 15:22 | 39.41446 | 15.65339 | 21090 ft | 354 kts | 143° |
| 2026-05-05 15:22 | 39.39583 | 15.67401 | 20759 ft | 352 kts | 143° |
| 2026-05-05 15:22 | 39.37730 | 15.69449 | 20433 ft | 350 kts | 143° |
| 2026-05-05 15:23 | 39.35885 | 15.71490 | 20102 ft | 348 kts | 143° |
| 2026-05-05 15:23 | 39.34044 | 15.73523 | 19774 ft | 347 kts | 143° |
| 2026-05-05 15:23 | 39.32216 | 15.75541 | 19450 ft | 345 kts | 143° |
| 2026-05-05 15:23 | 39.30391 | 15.77553 | 19120 ft | 344 kts | 143° |
| 2026-05-05 15:24 | 39.28576 | 15.79553 | 18797 ft | 343 kts | 143° |
| 2026-05-05 15:24 | 39.26759 | 15.81547 | 18472 ft | 342 kts | 143° |
| 2026-05-05 15:24 | 39.24944 | 15.83525 | 18114 ft | 341 kts | 143° |
| 2026-05-05 15:24 | 39.23130 | 15.85496 | 17757 ft | 340 kts | 143° |
| 2026-05-05 15:25 | 39.21325 | 15.87457 | 17412 ft | 338 kts | 143° |
| 2026-05-05 15:25 | 39.19531 | 15.89406 | 17074 ft | 336 kts | 143° |
| 2026-05-05 15:25 | 39.17746 | 15.91345 | 16748 ft | 334 kts | 143° |
| 2026-05-05 15:25 | 39.15974 | 15.93270 | 16427 ft | 333 kts | 143° |
| 2026-05-05 15:26 | 39.14210 | 15.95183 | 16092 ft | 331 kts | 143° |
| 2026-05-05 15:26 | 39.12472 | 15.97067 | 15776 ft | 330 kts | 143° |
| 2026-05-05 15:26 | 39.10718 | 15.98963 | 15462 ft | 329 kts | 143° |
| 2026-05-05 15:26 | 39.09064 | 16.00750 | 15163 ft | 327 kts | 142° |
| 2026-05-05 15:27 | 39.07327 | 16.02634 | 14849 ft | 326 kts | 142° |
| 2026-05-05 15:27 | 39.05594 | 16.04515 | 14532 ft | 325 kts | 142° |
| 2026-05-05 15:27 | 39.03868 | 16.06389 | 14214 ft | 324 kts | 142° |
| 2026-05-05 15:27 | 39.02146 | 16.08257 | 13896 ft | 324 kts | 142° |
| 2026-05-05 15:28 | 39.00429 | 16.10118 | 13543 ft | 323 kts | 142° |
| 2026-05-05 15:28 | 38.98732 | 16.11957 | 13200 ft | 321 kts | 142° |
| 2026-05-05 15:28 | 38.97028 | 16.13801 | 12881 ft | 319 kts | 142° |
| 2026-05-05 15:28 | 38.95334 | 16.15634 | 12548 ft | 318 kts | 142° |
| 2026-05-05 15:29 | 38.93644 | 16.17461 | 12227 ft | 317 kts | 142° |
| 2026-05-05 15:29 | 38.91966 | 16.19274 | 11913 ft | 314 kts | 142° |
| 2026-05-05 15:29 | 38.90303 | 16.21070 | 11602 ft | 311 kts | 142° |
| 2026-05-05 15:29 | 38.88649 | 16.22855 | 11288 ft | 309 kts | 142° |
| 2026-05-05 15:30 | 38.87008 | 16.24625 | 10982 ft | 307 kts | 142° |
| 2026-05-05 15:30 | 38.85378 | 16.26381 | 10689 ft | 305 kts | 142° |
| 2026-05-05 15:30 | 38.83750 | 16.28135 | 10387 ft | 306 kts | 142° |
| 2026-05-05 15:30 | 38.82125 | 16.29885 | 10168 ft | 301 kts | 142° |
| 2026-05-05 15:31 | 38.80536 | 16.31595 | 9936 ft | 298 kts | 142° |
| 2026-05-05 15:31 | 38.78954 | 16.33295 | 9618 ft | 296 kts | 142° |
| 2026-05-05 15:31 | 38.77912 | 16.34414 | 9416 ft | 295 kts | 141° |
| 2026-05-05 15:31 | 38.76576 | 16.36380 | 9089 ft | 295 kts | 116° |
| 2026-05-05 15:32 | 38.76080 | 16.38892 | 8821 ft | 291 kts | 91° |
| 2026-05-05 15:32 | 38.76320 | 16.41436 | 8557 ft | 287 kts | 76° |
| 2026-05-05 15:32 | 38.76779 | 16.43912 | 8261 ft | 285 kts | 75° |
| 2026-05-05 15:32 | 38.77253 | 16.46374 | 7972 ft | 284 kts | 75° |
| 2026-05-05 15:33 | 38.77717 | 16.48825 | 7687 ft | 282 kts | 75° |
| 2026-05-05 15:33 | 38.78167 | 16.51269 | 7404 ft | 281 kts | 75° |
| 2026-05-05 15:33 | 38.78610 | 16.53716 | 7026 ft | 284 kts | 75° |
| 2026-05-05 15:33 | 38.79052 | 16.56179 | 6720 ft | 284 kts | 76° |
| 2026-05-05 15:34 | 38.79537 | 16.58631 | 6331 ft | 285 kts | 66° |
| 2026-05-05 15:34 | 38.80731 | 16.60580 | 5980 ft | 279 kts | 30° |
| 2026-05-05 15:34 | 38.82518 | 16.61343 | 5723 ft | 268 kts | 360° |
| 2026-05-05 15:34 | 38.84293 | 16.60950 | 5617 ft | 255 kts | 334° |
| 2026-05-05 15:35 | 38.85673 | 16.59634 | 5499 ft | 245 kts | 310° |
| 2026-05-05 15:35 | 38.86497 | 16.57779 | 5378 ft | 237 kts | 287° |
| 2026-05-05 15:35 | 38.86840 | 16.55749 | 5298 ft | 229 kts | 280° |
| 2026-05-05 15:35 | 38.87084 | 16.53763 | 5200 ft | 223 kts | 279° |
| 2026-05-05 15:36 | 38.87319 | 16.51788 | 4867 ft | 226 kts | 278° |
| 2026-05-05 15:36 | 38.87590 | 16.49769 | 4426 ft | 232 kts | 280° |
| 2026-05-05 15:36 | 38.87858 | 16.47703 | 3931 ft | 238 kts | 279° |
| 2026-05-05 15:36 | 38.88103 | 16.45592 | 3534 ft | 239 kts | 278° |
| 2026-05-05 15:37 | 38.88341 | 16.43488 | 3123 ft | 238 kts | 277° |
| 2026-05-05 15:37 | 38.88578 | 16.41390 | 2658 ft | 238 kts | 277° |
| 2026-05-05 15:37 | 38.88817 | 16.39296 | 2219 ft | 235 kts | 277° |
| 2026-05-05 15:37 | 38.89050 | 16.37244 | 1814 ft | 229 kts | 278° |
| 2026-05-05 15:38 | 38.89275 | 16.35281 | 1506 ft | 214 kts | 277° |
| 2026-05-05 15:38 | 38.89484 | 16.33450 | 1214 ft | 200 kts | 277° |
| 2026-05-05 15:38 | 38.89679 | 16.31744 | 959 ft | 187 kts | 277° |
| 2026-05-05 15:38 | 38.89859 | 16.30183 | 721 ft | 168 kts | 277° |
| 2026-05-05 15:39 | 38.90009 | 16.28786 | 532 ft | 151 kts | 278° |
| 2026-05-05 15:39 | 38.90163 | 16.27486 | 300 ft | 143 kts | 276° |
| 2026-05-05 15:39 | 38.90307 | 16.26231 | 110 ft | 141 kts | 276° |
| 2026-05-05 15:39 | 38.90446 | 16.25042 | 35 ft | 123 kts | 281° |
| 2026-05-05 15:40 | 38.90552 | 16.24124 | 27 ft | 90 kts | 278° |
| 2026-05-05 15:40 | 38.90653 | 16.23608 | 33 ft | 32 kts | 310° |
| 2026-05-05 15:40 | 38.90760 | 16.23478 | 32 ft | 14 kts | 349° |
| 2026-05-05 15:40 | 38.90835 | 16.23534 | 31 ft | 14 kts | 70° |
| 2026-05-05 15:41 | 38.90832 | 16.23651 | 31 ft | 13 kts | 100° |
| 2026-05-05 15:41 | 38.90817 | 16.23769 | 31 ft | 15 kts | 98° |
| 2026-05-05 15:41 | 38.90798 | 16.23935 | 31 ft | 23 kts | 98° |
| 2026-05-05 15:41 | 38.90776 | 16.24131 | 31 ft | 6 kts | 87° |
| 2026-05-05 15:42 | 38.90801 | 16.24195 | 31 ft | 12 kts | 54° |
| 2026-05-05 15:42 | 38.90828 | 16.24318 | 31 ft | 17 kts | 98° |
| 2026-05-05 15:42 | 38.90810 | 16.24468 | 30 ft | 10 kts | 99° |
| 2026-05-05 15:42 | 38.90841 | 16.24514 | 29 ft | 8 kts | 8° |
| 2026-05-05 15:43 | 38.90864 | 16.24519 | 31 ft | 0 kts | 10° |
| 2026-05-05 15:43 | 38.90866 | 16.24522 | 31 ft | 1 kts | 38° |
| 2026-05-05 15:43 | 38.90866 | 16.24523 | 31 ft | 0 kts | 43° |